createdAt,value
2019-05-25T00:02:11.462Z,5.53
2019-05-25T00:04:40.605Z,5.37
2019-05-25T00:07:09.757Z,6.10
2019-05-25T00:09:38.922Z,5.20
2019-05-25T00:12:08.131Z,4.80
2019-05-25T00:14:37.287Z,4.47
2019-05-25T00:17:06.665Z,5.83
2019-05-25T00:19:35.803Z,5.40
2019-05-25T00:22:05.002Z,5.23
2019-05-25T00:24:34.143Z,4.67
2019-05-25T00:27:03.843Z,4.57
2019-05-25T00:29:33.049Z,4.23
2019-05-25T00:32:02.308Z,5.13
2019-05-25T00:34:31.428Z,4.67
2019-05-25T00:37:00.599Z,5.10
2019-05-25T00:39:29.764Z,5.50
2019-05-25T00:41:58.995Z,5.53
2019-05-25T00:44:28.244Z,5.17
2019-05-25T00:46:57.414Z,6.00
2019-05-25T00:49:27.318Z,5.33
2019-05-25T00:51:57.262Z,6.00
2019-05-25T00:54:28.257Z,4.47
2019-05-25T00:56:57.296Z,4.87
2019-05-25T00:59:26.433Z,6.30
2019-05-25T01:01:55.581Z,4.67
2019-05-25T01:04:24.778Z,6.17
2019-05-25T01:06:53.957Z,6.47
2019-05-25T01:09:23.379Z,5.77
2019-05-25T01:11:52.585Z,5.77
2019-05-25T01:14:21.731Z,6.47
2019-05-25T01:16:50.897Z,5.97
2019-05-25T01:19:20.129Z,6.93
2019-05-25T01:21:49.406Z,6.57
2019-05-25T01:24:18.711Z,7.47
2019-05-25T01:26:47.951Z,6.87
2019-05-25T01:29:17.169Z,7.17
2019-05-25T01:31:46.404Z,7.53
2019-05-25T01:34:15.690Z,7.13
2019-05-25T01:36:44.776Z,6.00
2019-05-25T01:39:13.963Z,6.70
2019-05-25T01:41:43.152Z,7.50
2019-05-25T01:44:12.392Z,6.53
2019-05-25T01:46:41.654Z,7.00
2019-05-25T01:49:10.855Z,8.60
2019-05-25T01:51:39.992Z,6.70
2019-05-25T01:54:09.168Z,8.27
2019-05-25T01:56:38.370Z,6.40
2019-05-25T01:59:07.568Z,8.10
2019-05-25T02:01:36.739Z,5.97
2019-05-25T02:04:05.959Z,5.53
2019-05-25T02:06:36.932Z,7.00
2019-05-25T02:09:07.754Z,8.00
2019-05-25T02:11:37.056Z,6.83
2019-05-25T02:14:06.245Z,7.13
2019-05-25T02:16:35.385Z,6.97
2019-05-25T02:19:05.167Z,7.97
2019-05-25T02:21:34.320Z,7.27
2019-05-25T02:24:03.478Z,8.87
2019-05-25T02:26:32.720Z,8.53
2019-05-25T02:29:02.620Z,9.30
2019-05-25T02:31:31.855Z,7.90
2019-05-25T02:34:00.996Z,7.10
2019-05-25T02:36:30.220Z,7.73
2019-05-25T02:38:59.470Z,6.70
2019-05-25T02:41:29.528Z,8.00
2019-05-25T02:43:58.764Z,5.83
2019-05-25T02:46:27.907Z,8.83
2019-05-25T02:48:57.076Z,7.63
2019-05-25T02:51:26.235Z,7.40
2019-05-25T02:53:55.356Z,6.33
2019-05-25T02:56:24.544Z,7.27
2019-05-25T02:58:53.761Z,6.57
2019-05-25T03:01:22.978Z,6.43
2019-05-25T03:03:52.146Z,6.67
2019-05-25T03:06:22.655Z,7.50
2019-05-25T03:08:53.641Z,6.60
2019-05-25T03:11:22.796Z,6.10
2019-05-25T03:13:52.115Z,7.53
2019-05-25T03:16:21.289Z,5.80
2019-05-25T03:18:50.495Z,7.20
2019-05-25T03:21:19.646Z,5.87
2019-05-25T03:23:48.787Z,5.30
2019-05-25T03:26:17.933Z,6.83
2019-05-25T03:28:47.063Z,4.33
2019-05-25T03:31:16.230Z,7.73
2019-05-25T03:33:45.411Z,7.23
2019-05-25T03:36:14.658Z,5.37
2019-05-25T03:38:43.891Z,6.67
2019-05-25T03:41:13.098Z,7.43
2019-05-25T03:43:42.273Z,7.07
2019-05-25T03:46:11.423Z,7.63
2019-05-25T03:48:40.611Z,7.50
2019-05-25T03:51:09.773Z,7.10
2019-05-25T03:53:38.907Z,7.00
2019-05-25T03:56:08.075Z,7.70
2019-05-25T03:58:37.249Z,7.17
2019-05-25T04:01:06.402Z,8.37
2019-05-25T04:03:35.620Z,8.67
2019-05-25T04:06:04.878Z,8.37
2019-05-25T04:08:34.109Z,8.30
2019-05-25T04:11:03.411Z,8.90
2019-05-25T04:13:32.730Z,8.07
2019-05-25T04:16:02.421Z,7.00
2019-05-25T04:18:31.941Z,8.17
2019-05-25T04:21:01.091Z,8.57
2019-05-25T04:23:30.334Z,8.87
2019-05-25T04:25:59.564Z,10.47
2019-05-25T04:28:28.720Z,11.30
2019-05-25T04:30:57.945Z,13.57
2019-05-25T04:33:27.134Z,12.10
2019-05-25T04:35:56.416Z,12.03
2019-05-25T04:38:25.682Z,13.33
2019-05-25T04:40:54.848Z,12.33
2019-05-25T04:43:24.088Z,13.70
2019-05-25T04:45:53.380Z,12.03
2019-05-25T04:48:22.549Z,13.53
2019-05-25T04:50:51.790Z,13.43
2019-05-25T04:53:20.926Z,12.50
2019-05-25T04:55:50.126Z,12.53
2019-05-25T04:58:19.353Z,12.70
2019-05-25T05:00:49.051Z,13.63
2019-05-25T05:03:18.427Z,14.50
2019-05-25T05:05:47.674Z,10.63
2019-05-25T05:08:16.935Z,10.83
2019-05-25T05:10:46.288Z,10.53
2019-05-25T05:13:15.472Z,10.20
2019-05-25T05:15:44.674Z,9.80
2019-05-25T05:18:13.990Z,10.23
2019-05-25T05:20:43.221Z,10.37
2019-05-25T05:23:12.470Z,8.77
2019-05-25T05:25:41.674Z,8.40
2019-05-25T05:28:10.998Z,7.30
2019-05-25T05:30:40.524Z,7.47
2019-05-25T05:33:10.151Z,7.67
2019-05-25T05:35:40.741Z,8.50
2019-05-25T05:38:10.132Z,7.43
2019-05-25T05:40:40.084Z,6.13
2019-05-25T05:43:12.386Z,7.77
2019-05-25T05:45:43.494Z,6.67
2019-05-25T05:48:13.896Z,7.03
2019-05-25T05:50:44.592Z,6.53
2019-05-25T05:53:13.787Z,7.27
2019-05-25T05:55:43.010Z,7.60
2019-05-25T05:58:12.176Z,7.43
2019-05-25T06:00:41.360Z,6.03
2019-05-25T06:03:10.611Z,7.13
2019-05-25T06:05:39.795Z,5.97
2019-05-25T06:08:09.016Z,7.00
2019-05-25T06:10:38.230Z,6.93
2019-05-25T06:13:08.332Z,6.10
2019-05-25T06:15:37.651Z,6.23
2019-05-25T06:18:06.815Z,6.20
2019-05-25T06:20:36.028Z,5.97
2019-05-25T06:23:07.823Z,6.70
2019-05-25T06:25:36.146Z,6.63
2019-05-25T06:28:05.354Z,6.47
2019-05-25T06:30:34.516Z,6.83
2019-05-25T06:33:03.801Z,6.37
2019-05-25T06:35:33.012Z,6.77
2019-05-25T06:38:02.348Z,6.40
2019-05-25T06:40:31.538Z,7.70
2019-05-25T06:43:00.728Z,6.77
2019-05-25T06:45:29.915Z,5.83
2019-05-25T06:47:59.094Z,5.43
2019-05-25T06:50:28.290Z,5.73
2019-05-25T06:52:58.120Z,4.97
2019-05-25T06:55:28.146Z,5.53
2019-05-25T06:57:57.342Z,5.07
2019-05-25T07:00:26.775Z,5.07
2019-05-25T07:02:55.959Z,5.10
2019-05-25T07:05:25.096Z,5.10
2019-05-25T07:07:54.826Z,5.83
2019-05-25T07:10:24.176Z,5.73
2019-05-25T07:12:53.933Z,5.63
2019-05-25T07:15:23.207Z,5.87
2019-05-25T07:17:52.372Z,5.37
2019-05-25T07:20:21.505Z,6.10
2019-05-25T07:22:50.823Z,4.87
2019-05-25T07:25:20.667Z,5.07
2019-05-25T07:27:58.837Z,6.40
2019-05-25T07:30:22.171Z,4.83
2019-05-25T07:32:51.607Z,5.00
2019-05-25T07:35:20.740Z,6.17
2019-05-25T07:37:49.876Z,6.13
2019-05-25T07:40:19.706Z,6.70
2019-05-25T07:42:48.883Z,6.33
2019-05-25T07:45:18.158Z,4.33
2019-05-25T07:47:47.472Z,6.37
2019-05-25T07:50:18.303Z,6.30
2019-05-25T07:52:47.480Z,6.00
2019-05-25T07:55:16.637Z,6.53
2019-05-25T07:57:45.891Z,7.10
2019-05-25T08:00:16.339Z,6.53
2019-05-25T08:02:46.285Z,6.53
2019-05-25T08:05:16.430Z,6.60
2019-05-25T08:07:45.582Z,8.03
2019-05-25T08:10:17.035Z,7.30
2019-05-25T08:12:46.159Z,7.37
2019-05-25T08:15:15.329Z,7.80
2019-05-25T08:17:44.562Z,7.27
2019-05-25T08:20:13.776Z,6.97
2019-05-25T08:22:43.009Z,7.27
2019-05-25T08:25:13.064Z,6.10
2019-05-25T08:27:42.351Z,7.33
2019-05-25T08:30:12.259Z,7.53
2019-05-25T08:32:41.429Z,7.77
2019-05-25T08:35:12.251Z,6.67
2019-05-25T08:37:41.348Z,7.50
2019-05-25T08:40:10.581Z,7.83
2019-05-25T08:42:39.852Z,7.93
2019-05-25T08:45:09.191Z,7.77
2019-05-25T08:47:38.335Z,8.10
2019-05-25T08:50:08.513Z,7.87
2019-05-25T08:52:38.406Z,6.67
2019-05-25T08:55:09.034Z,7.47
2019-05-25T08:57:38.337Z,6.57
2019-05-25T09:00:08.502Z,6.97
2019-05-25T09:02:37.850Z,5.57
2019-05-25T09:05:07.266Z,5.90
2019-05-25T09:07:36.851Z,6.93
2019-05-25T09:10:07.458Z,5.80
2019-05-25T09:12:36.693Z,5.57
2019-05-25T09:15:06.832Z,6.07
2019-05-25T09:17:36.868Z,5.60
2019-05-25T09:20:07.239Z,6.10
2019-05-25T09:22:36.384Z,5.93
2019-05-25T09:25:06.071Z,6.03
2019-05-25T09:27:35.246Z,6.20
2019-05-25T09:30:04.875Z,5.60
2019-05-25T09:32:34.154Z,5.80
2019-05-25T09:35:03.387Z,5.60
2019-05-25T09:37:32.539Z,5.77
2019-05-25T09:40:02.174Z,5.90
2019-05-25T09:42:31.312Z,5.57
2019-05-25T09:45:00.504Z,6.17
2019-05-25T09:47:29.659Z,5.00
2019-05-25T09:49:58.858Z,5.70
2019-05-25T09:52:28.530Z,5.73
2019-05-25T09:54:57.782Z,5.43
2019-05-25T09:57:27.754Z,7.93
2019-05-25T09:59:56.986Z,9.47
2019-05-25T10:02:26.150Z,6.40
2019-05-25T10:04:55.830Z,6.67
2019-05-25T10:07:24.996Z,6.73
2019-05-25T10:09:54.387Z,6.40
2019-05-25T10:12:23.606Z,6.27
2019-05-25T10:14:52.802Z,5.67
2019-05-25T10:17:21.986Z,6.17
2019-05-25T10:19:51.193Z,6.30
2019-05-25T10:22:20.447Z,5.07
2019-05-25T10:24:49.608Z,6.27
2019-05-25T10:27:18.825Z,5.87
2019-05-25T10:29:48.046Z,5.90
2019-05-25T10:32:17.204Z,5.40
2019-05-25T10:34:46.473Z,5.47
2019-05-25T10:37:15.578Z,5.13
2019-05-25T10:39:44.736Z,5.00
2019-05-25T10:42:13.851Z,5.33
2019-05-25T10:44:43.146Z,5.70
2019-05-25T10:47:13.102Z,4.77
2019-05-25T10:49:43.008Z,4.73
2019-05-25T10:52:12.188Z,5.83
2019-05-25T10:54:41.464Z,4.77
2019-05-25T10:57:13.240Z,5.40
2019-05-25T10:59:52.428Z,5.03
2019-05-25T11:02:13.076Z,6.57
2019-05-25T11:04:42.233Z,5.70
2019-05-25T11:07:11.385Z,6.30
2019-05-25T11:09:40.548Z,5.73
2019-05-25T11:12:09.760Z,6.43
2019-05-25T11:14:38.990Z,5.80
2019-05-25T11:17:08.176Z,6.30
2019-05-25T11:19:37.439Z,5.77
2019-05-25T11:22:06.656Z,6.43
2019-05-25T11:24:35.783Z,6.60
2019-05-25T11:27:04.939Z,6.30
2019-05-25T11:29:34.266Z,6.60
2019-05-25T11:32:05.368Z,6.50
2019-05-25T11:34:34.339Z,7.03
2019-05-25T11:37:03.998Z,6.97
2019-05-25T11:39:33.156Z,7.53
2019-05-25T11:42:02.290Z,8.30
2019-05-25T11:44:31.623Z,7.53
2019-05-25T11:47:00.846Z,7.57
2019-05-25T11:49:30.004Z,8.60
2019-05-25T11:51:59.183Z,9.93
2019-05-25T11:54:28.513Z,11.03
2019-05-25T11:56:58.448Z,10.30
2019-05-25T11:59:27.694Z,9.37
2019-05-25T12:01:56.939Z,9.87
2019-05-25T12:04:26.107Z,10.37
2019-05-25T12:06:55.276Z,11.33
2019-05-25T12:09:24.531Z,11.17
2019-05-25T12:11:53.789Z,13.57
2019-05-25T12:14:22.954Z,11.70
2019-05-25T12:16:52.172Z,13.03
2019-05-25T12:19:21.317Z,12.27
2019-05-25T12:21:50.469Z,12.70
2019-05-25T12:24:19.987Z,12.80
2019-05-25T12:26:49.136Z,11.37
2019-05-25T12:29:18.281Z,10.90
2019-05-25T12:31:47.437Z,12.07
2019-05-25T12:34:17.272Z,14.43
2019-05-25T12:36:46.472Z,14.60
2019-05-25T12:39:16.296Z,14.97
2019-05-25T12:41:45.546Z,14.60
2019-05-25T12:44:15.305Z,13.83
2019-05-25T12:46:44.454Z,14.00
2019-05-25T12:49:14.295Z,15.97
2019-05-25T12:51:43.618Z,15.87
2019-05-25T12:54:12.893Z,15.10
2019-05-25T12:56:42.071Z,15.03
2019-05-25T12:59:11.214Z,12.90
2019-05-25T13:01:40.361Z,9.00
2019-05-25T13:04:09.631Z,8.13
2019-05-25T13:06:39.584Z,8.03
2019-05-25T13:09:08.983Z,9.43
2019-05-25T13:11:38.175Z,9.30
2019-05-25T13:14:14.479Z,8.40
2019-05-25T13:16:38.206Z,9.07
2019-05-25T13:19:07.359Z,11.33
2019-05-25T13:21:36.523Z,10.70
2019-05-25T13:24:05.726Z,11.23
2019-05-25T13:26:34.901Z,12.70
2019-05-25T13:29:04.238Z,12.70
2019-05-25T13:31:33.429Z,12.27
2019-05-25T13:34:02.625Z,12.07
2019-05-25T13:36:31.990Z,11.33
2019-05-25T13:39:01.135Z,9.93
2019-05-25T13:41:30.382Z,10.70
2019-05-25T13:43:59.532Z,10.50
2019-05-25T13:46:28.749Z,10.63
2019-05-25T13:48:57.918Z,10.90
2019-05-25T13:51:27.051Z,9.50
2019-05-25T13:53:56.217Z,9.23
2019-05-25T13:56:25.351Z,9.40
2019-05-25T13:58:54.660Z,8.87
2019-05-25T14:01:28.378Z,9.70
2019-05-25T14:03:55.942Z,8.93
2019-05-25T14:06:25.507Z,8.10
2019-05-25T14:08:54.740Z,8.20
2019-05-25T14:11:23.955Z,9.40
2019-05-25T14:13:53.182Z,8.37
2019-05-25T14:16:22.352Z,9.10
2019-05-25T14:18:51.553Z,8.47
2019-05-25T14:21:20.750Z,8.73
2019-05-25T14:23:49.938Z,7.87
2019-05-25T14:26:19.056Z,7.20
2019-05-25T14:28:48.294Z,7.90
2019-05-25T14:31:17.533Z,7.37
2019-05-25T14:33:46.712Z,7.90
2019-05-25T14:36:16.011Z,6.87
2019-05-25T14:38:45.237Z,6.37
2019-05-25T14:41:14.999Z,6.80
2019-05-25T14:43:44.242Z,5.73
2019-05-25T14:46:26.808Z,6.23
2019-05-25T14:48:44.237Z,5.33
2019-05-25T14:51:13.430Z,5.50
2019-05-25T14:53:42.651Z,5.07
2019-05-25T14:56:11.780Z,5.03
2019-05-25T14:58:40.999Z,5.97
2019-05-25T15:01:10.178Z,4.90
2019-05-25T15:03:39.780Z,4.60
2019-05-25T15:06:08.949Z,3.83
2019-05-25T15:08:38.169Z,5.40
2019-05-25T15:11:07.441Z,4.77
2019-05-25T15:13:36.600Z,5.27
2019-05-25T15:16:05.826Z,5.23
2019-05-25T15:18:34.994Z,4.60
2019-05-25T15:21:04.180Z,4.47
2019-05-25T15:23:33.349Z,3.40
2019-05-25T15:26:02.603Z,4.30
2019-05-25T15:28:31.873Z,4.77
2019-05-25T15:31:01.322Z,3.70
2019-05-25T15:33:30.583Z,3.80
2019-05-25T15:35:59.830Z,3.87
2019-05-25T15:38:29.049Z,3.73
2019-05-25T15:40:58.183Z,3.43
2019-05-25T15:43:27.308Z,3.80
2019-05-25T15:45:56.903Z,4.50
2019-05-25T15:48:26.456Z,3.43
2019-05-25T15:50:56.419Z,3.13
2019-05-25T15:53:26.050Z,2.53
2019-05-25T15:55:55.203Z,2.83
2019-05-25T15:58:24.338Z,3.03
2019-05-25T16:00:53.666Z,2.80
2019-05-25T16:03:22.921Z,2.57
2019-05-25T16:05:52.135Z,2.73
2019-05-25T16:08:21.283Z,3.00
2019-05-25T16:10:50.542Z,2.90
2019-05-25T16:13:19.854Z,3.27
2019-05-25T16:15:48.997Z,3.23
2019-05-25T16:18:18.677Z,2.73
2019-05-25T16:20:47.815Z,3.10
2019-05-25T16:23:17.002Z,3.87
2019-05-25T16:25:46.156Z,3.23
2019-05-25T16:28:15.887Z,3.10
2019-05-25T16:30:45.104Z,3.00
2019-05-25T16:33:14.978Z,3.73
2019-05-25T16:35:45.425Z,3.30
2019-05-25T16:38:15.031Z,3.40
2019-05-25T16:40:44.241Z,2.90
2019-05-25T16:43:13.476Z,2.77
2019-05-25T16:45:42.663Z,2.73
2019-05-25T16:48:11.866Z,3.50
2019-05-25T16:50:41.166Z,3.13
2019-05-25T16:53:10.334Z,3.50
2019-05-25T16:55:40.201Z,3.60
2019-05-25T16:58:09.353Z,3.17
2019-05-25T17:00:38.789Z,3.57
2019-05-25T17:03:08.515Z,3.97
2019-05-25T17:05:37.660Z,3.73
2019-05-25T17:08:06.809Z,5.03
2019-05-25T17:10:35.957Z,6.20
2019-05-25T17:13:05.148Z,6.17
2019-05-25T17:15:34.603Z,5.43
2019-05-25T17:18:05.020Z,7.13
2019-05-25T17:20:34.752Z,6.30
2019-05-25T17:23:04.003Z,3.83
2019-05-25T17:25:33.160Z,3.73
2019-05-25T17:28:02.278Z,3.00
2019-05-25T17:30:41.280Z,3.60
2019-05-25T17:33:10.515Z,3.37
2019-05-25T17:35:40.202Z,3.17
2019-05-25T17:38:10.303Z,3.43
2019-05-25T17:40:39.467Z,2.73
2019-05-25T17:43:08.644Z,3.20
2019-05-25T17:45:37.775Z,3.73
2019-05-25T17:48:07.081Z,3.53
2019-05-25T17:50:36.270Z,3.50
2019-05-25T17:53:05.493Z,3.77
2019-05-25T17:55:34.711Z,4.47
2019-05-25T17:58:04.084Z,4.00
2019-05-25T18:00:39.444Z,4.60
2019-05-25T18:03:09.240Z,4.53
2019-05-25T18:05:38.601Z,3.90
2019-05-25T18:08:07.961Z,3.87
2019-05-25T18:10:51.126Z,3.30
2019-05-25T18:13:08.059Z,3.10
2019-05-25T18:15:37.376Z,3.90
2019-05-25T18:18:07.050Z,5.50
2019-05-25T18:20:37.142Z,4.67
2019-05-25T18:23:06.463Z,5.10
2019-05-25T18:25:35.596Z,4.87
2019-05-25T18:28:05.491Z,4.93
2019-05-25T18:30:35.293Z,5.90
2019-05-25T18:33:04.977Z,4.90
2019-05-25T18:35:34.550Z,4.10
2019-05-25T18:38:03.880Z,4.00
2019-05-25T18:40:33.114Z,3.50
2019-05-25T18:43:02.286Z,3.80
2019-05-25T18:45:31.525Z,4.23
2019-05-25T18:48:00.753Z,6.10
2019-05-25T18:50:29.904Z,4.20
2019-05-25T18:52:59.017Z,5.03
2019-05-25T18:55:28.398Z,5.10
2019-05-25T18:57:57.549Z,5.77
2019-05-25T19:00:28.306Z,7.30
2019-05-25T19:02:57.744Z,6.33
2019-05-25T19:05:27.075Z,6.33
2019-05-25T19:07:56.214Z,5.80
2019-05-25T19:10:25.362Z,5.13
2019-05-25T19:12:54.463Z,4.80
2019-05-25T19:15:23.625Z,4.57
2019-05-25T19:17:52.771Z,4.67
2019-05-25T19:20:22.020Z,4.37
2019-05-25T19:22:51.163Z,4.57
2019-05-25T19:25:20.416Z,4.70
2019-05-25T19:27:49.648Z,4.00
2019-05-25T19:30:18.933Z,4.90
2019-05-25T19:32:48.128Z,4.03
2019-05-25T19:35:17.351Z,4.57
2019-05-25T19:37:46.494Z,4.73
2019-05-25T19:40:18.917Z,4.00
2019-05-25T19:42:50.058Z,4.90
2019-05-25T19:45:20.285Z,4.60
2019-05-25T19:47:49.460Z,3.63
2019-05-25T19:50:18.661Z,4.20
2019-05-25T19:52:47.857Z,3.87
2019-05-25T19:55:17.073Z,3.63
2019-05-25T19:57:46.239Z,3.20
2019-05-25T20:00:16.367Z,3.50
2019-05-25T20:02:45.635Z,3.60
2019-05-25T20:05:17.629Z,3.83
2019-05-25T20:07:47.391Z,3.77
2019-05-25T20:10:17.058Z,4.20
2019-05-25T20:12:46.376Z,6.13
2019-05-25T20:15:16.034Z,4.60
2019-05-25T20:17:45.264Z,4.57
2019-05-25T20:20:14.511Z,4.57
2019-05-25T20:22:43.770Z,4.93
2019-05-25T20:25:12.938Z,4.97
2019-05-25T20:27:42.147Z,5.60
2019-05-25T20:30:13.094Z,5.07
2019-05-25T20:32:42.235Z,5.93
2019-05-25T20:35:11.482Z,5.50
2019-05-25T20:37:40.609Z,4.63
2019-05-25T20:40:10.375Z,5.23
2019-05-25T20:42:40.464Z,5.43
2019-05-25T20:45:09.657Z,7.00
2019-05-25T20:47:38.927Z,6.77
2019-05-25T20:50:09.696Z,7.53
2019-05-25T20:52:38.843Z,6.20
2019-05-25T20:55:08.744Z,7.20
2019-05-25T20:57:37.879Z,7.00
2019-05-25T21:00:08.604Z,6.17
2019-05-25T21:02:37.814Z,6.37
2019-05-25T21:05:07.617Z,7.10
2019-05-25T21:07:36.865Z,7.60
2019-05-25T21:10:07.427Z,6.70
2019-05-25T21:12:36.645Z,13.33
2019-05-25T21:15:06.033Z,13.80
2019-05-25T21:17:35.322Z,13.03
2019-05-25T21:20:05.029Z,11.83
2019-05-25T21:22:34.217Z,11.43
2019-05-25T21:25:05.974Z,15.13
2019-05-25T21:27:34.421Z,15.27
2019-05-25T21:30:03.739Z,16.57
2019-05-25T21:32:32.950Z,16.97
2019-05-25T21:35:02.129Z,16.40
2019-05-25T21:37:31.300Z,19.33
2019-05-25T21:40:00.509Z,20.70
2019-05-25T21:42:29.710Z,20.27
2019-05-25T21:44:59.149Z,21.20
2019-05-25T21:47:28.349Z,21.43
2019-05-25T21:49:57.498Z,21.13
2019-05-25T21:52:26.728Z,23.20
2019-05-25T21:54:55.865Z,23.97
2019-05-25T21:57:25.076Z,23.27
2019-05-25T21:59:54.319Z,24.23
2019-05-25T22:02:23.468Z,27.30
2019-05-25T22:04:52.756Z,28.57
2019-05-25T22:07:22.056Z,28.43
2019-05-25T22:09:51.286Z,29.20
2019-05-25T22:12:20.590Z,30.03
2019-05-25T22:14:49.854Z,30.40
2019-05-25T22:17:19.035Z,31.33
2019-05-25T22:19:48.255Z,30.00
2019-05-25T22:22:17.433Z,31.43
2019-05-25T22:24:46.595Z,30.60
2019-05-25T22:27:15.769Z,26.67
2019-05-25T22:29:45.036Z,29.70
2019-05-25T22:32:14.201Z,28.43
2019-05-25T22:34:43.344Z,28.10
2019-05-25T22:37:12.557Z,20.47
2019-05-25T22:39:41.756Z,29.33
2019-05-25T22:42:10.916Z,31.43
2019-05-25T22:44:40.113Z,29.47
2019-05-25T22:47:09.258Z,22.13
2019-05-25T22:49:38.720Z,26.93
2019-05-25T22:52:07.855Z,29.73
2019-05-25T22:54:37.007Z,29.47
2019-05-25T22:57:06.216Z,26.43
2019-05-25T22:59:35.392Z,27.37
2019-05-25T23:02:05.020Z,29.23
2019-05-25T23:04:34.197Z,26.83
2019-05-25T23:07:03.405Z,31.20
2019-05-25T23:09:32.668Z,23.10
2019-05-25T23:12:01.895Z,28.47
2019-05-25T23:14:31.038Z,24.13
2019-05-25T23:17:00.178Z,22.63
2019-05-25T23:19:29.406Z,26.60
2019-05-25T23:21:58.599Z,29.87
2019-05-25T23:24:27.749Z,25.43
2019-05-25T23:26:56.903Z,31.30
2019-05-25T23:29:26.155Z,26.07
2019-05-25T23:31:55.419Z,35.80
2019-05-25T23:34:24.584Z,34.27
2019-05-25T23:36:53.811Z,34.53
2019-05-25T23:39:23.027Z,31.97
2019-05-25T23:41:52.203Z,32.70
2019-05-25T23:44:21.431Z,32.83
2019-05-25T23:46:50.757Z,33.90
2019-05-25T23:49:20.008Z,35.27
2019-05-25T23:51:49.241Z,38.33
2019-05-25T23:54:18.408Z,39.17
2019-05-25T23:56:47.661Z,39.27
2019-05-25T23:59:16.855Z,40.37
